Cotes De Bretagne — FW3973 — position and weather

sailwx.info

Track history (hours):
 
Tides and Currents Weather Stations Pressure Air Temp Water Temp Dewpoint Dewpoint Depression Visibility Wind Speed Wind Dir Waves Ship Positions

Cotes De Bretagne

Last reported at 2015-Jan-30 08:33 UTC. Time now 2015-Jan-30 09:27 UTC.
Position N 47°44' W 003°21'.

Length 75 m; draft 4.2 m.

Type: Dredging. MMSI: 227003850.

Date/timePositionNaut miles runAvg speedWind from/ knotsBaromVisibWave heightAir tempDewpointWater temp
2015-Jan-30 08:33N 47°44' W 003°21'0 0.0
2015-Jan-30 07:34N 47°44' W 003°21'0 0.0
2015-Jan-30 06:33N 47°44' W 003°21'0 0.0
2015-Jan-30 05:33N 47°44' W 003°21'0 0.0
2015-Jan-30 04:33N 47°44' W 003°21'0 0.0
2015-Jan-30 03:33N 47°44' W 003°21'0 0.0
2015-Jan-30 02:34N 47°44' W 003°21'0 0.0
2015-Jan-30 01:33N 47°44' W 003°21'2 1.5
2015-Jan-30 00:33N 47°45' W 003°19'0 0.0
2015-Jan-29 23:33N 47°45' W 003°19'0 0.0
2015-Jan-29 22:34N 47°45' W 003°19'2 1.5
2015-Jan-29 21:34N 47°44' W 003°21'0 0.0
2015-Jan-29 20:33N 47°44' W 003°21'0 0.0
2015-Jan-29 19:33N 47°44' W 003°21'2 2.2
2015-Jan-29 18:34N 47°42' W 003°22'5 5.2
2015-Jan-29 17:33N 47°37' W 003°20'6 6.3
2015-Jan-29 16:34N 47°32' W 003°15'7 6.1
2015-Jan-29 15:28N 47°26' W 003°09'7 6.4
2015-Jan-29 14:27N 47°22' W 003°03'55 6.2
2015-Jan-29 05:33N 46°40' W 002°10'7 6.8
2015-Jan-29 04:33N 46°35' W 002°03'7 6.9
2015-Jan-29 03:33N 46°30' W 001°57'7 6.8
2015-Jan-29 02:33N 46°25' W 001°50'4 4.2
2015-Jan-29 01:33N 46°22' W 001°45'0 0.0
2015-Jan-29 00:33N 46°22' W 001°45'0 0.3
2015-Jan-28 23:33N 46°22' W 001°45'6 5.6
2015-Jan-28 22:33N 46°26' W 001°51'1111.1
2015-Jan-28 21:33N 46°34' W 002°01'7111.0
2015-Jan-28 15:09N 47°25' W 003°14'610.5
2015-Jan-28 14:33N 47°29' W 003°21'1110.7
2015-Jan-28 13:32N 47°36' W 003°34'1110.8
2015-Jan-28 12:33N 47°42' W 003°46'1111.2
2015-Jan-28 11:33N 47°48' W 004°01'9 9.4
2015-Jan-28 10:33N 47°55' W 004°08'3 3.3
2015-Jan-28 09:33N 47°58' W 004°06'0 0.0
2015-Jan-27 20:33N 47°58' W 004°06'0 0.0
2015-Jan-27 05:33N 47°58' W 004°06'0 0.0
2015-Jan-26 14:33N 47°58' W 004°06'2 0.3
2015-Jan-26 07:33N 47°56' W 004°07'6 2.8
2015-Jan-26 05:33N 47°50' W 004°06'0 0.0
2015-Jan-25 19:33N 47°50' W 004°06'0 0.0
2015-Jan-25 16:33N 47°50' W 004°06'3 2.9
2015-Jan-25 15:33N 47°48' W 004°03'47 9.4
2015-Jan-25 10:33N 47°22' W 003°05'6 0.6
2015-Jan-25 00:34N 47°19' W 002°58'8010.0
2015-Jan-24 16:33N 47°58' W 004°41'7 6.9
2015-Jan-24 15:34N 48°04' W 004°45'10 9.8
2015-Jan-24 14:34N 48°14' W 004°45'9 8.8
2015-Jan-24 13:33N 48°23' W 004°49'1010.2
2015-Jan-24 12:33N 48°33' W 004°49'1111.4
2015-Jan-24 11:33N 48°40' W 004°36'1212.4
2015-Jan-24 10:33N 48°44' W 004°19'  
2015-Jan-21 00:33N 48°39' W 004°41'1010.2
2015-Jan-20 23:33N 48°31' W 004°50'1110.6
2015-Jan-20 22:33N 48°20' W 004°48'1010.2
2015-Jan-20 21:34N 48°10' W 004°45'9 9.2
2015-Jan-20 20:34N 48°01' W 004°45'10 9.7
2015-Jan-20 19:33N 47°54' W 004°36'9 9.4
2015-Jan-20 18:33N 47°47' W 004°26'9 8.9
2015-Jan-20 17:33N 47°45' W 004°13'14 7.2
2015-Jan-20 15:33N 47°58' W 004°06'0 0.0
2015-Jan-20 12:33N 47°58' W 004°06'  
Track history (hours):
 
Tides and Currents Weather Stations Pressure Air Temp Water Temp Dewpoint Dewpoint Depression Visibility Wind Speed Wind Dir Waves Ship Positions

Cotes De Bretagne

Last reported at 2015-Jan-30 08:33 UTC. Time now 2015-Jan-30 09:27 UTC.
Position N 47°44' W 003°21'.

Length 75 m; draft 4.2 m.

Type: Dredging. MMSI: 227003850.

Date/timePositionNaut miles runAvg speedWind from/ knotsBaromVisibWave heightAir tempDewpointWater temp
2015-Jan-30 08:33N 47°44' W 003°21'0 0.0
2015-Jan-30 07:34N 47°44' W 003°21'0 0.0
2015-Jan-30 06:33N 47°44' W 003°21'0 0.0
2015-Jan-30 05:33N 47°44' W 003°21'0 0.0
2015-Jan-30 04:33N 47°44' W 003°21'0 0.0
2015-Jan-30 03:33N 47°44' W 003°21'0 0.0
2015-Jan-30 02:34N 47°44' W 003°21'0 0.0
2015-Jan-30 01:33N 47°44' W 003°21'2 1.5
2015-Jan-30 00:33N 47°45' W 003°19'0 0.0
2015-Jan-29 23:33N 47°45' W 003°19'0 0.0
2015-Jan-29 22:34N 47°45' W 003°19'2 1.5
2015-Jan-29 21:34N 47°44' W 003°21'0 0.0
2015-Jan-29 20:33N 47°44' W 003°21'0 0.0
2015-Jan-29 19:33N 47°44' W 003°21'2 2.2
2015-Jan-29 18:34N 47°42' W 003°22'5 5.2
2015-Jan-29 17:33N 47°37' W 003°20'6 6.3
2015-Jan-29 16:34N 47°32' W 003°15'7 6.1
2015-Jan-29 15:28N 47°26' W 003°09'7 6.4
2015-Jan-29 14:27N 47°22' W 003°03'55 6.2
2015-Jan-29 05:33N 46°40' W 002°10'7 6.8
2015-Jan-29 04:33N 46°35' W 002°03'7 6.9
2015-Jan-29 03:33N 46°30' W 001°57'7 6.8
2015-Jan-29 02:33N 46°25' W 001°50'4 4.2
2015-Jan-29 01:33N 46°22' W 001°45'0 0.0
2015-Jan-29 00:33N 46°22' W 001°45'0 0.3
2015-Jan-28 23:33N 46°22' W 001°45'6 5.6
2015-Jan-28 22:33N 46°26' W 001°51'1111.1
2015-Jan-28 21:33N 46°34' W 002°01'7111.0
2015-Jan-28 15:09N 47°25' W 003°14'610.5
2015-Jan-28 14:33N 47°29' W 003°21'1110.7
2015-Jan-28 13:32N 47°36' W 003°34'1110.8
2015-Jan-28 12:33N 47°42' W 003°46'1111.2
2015-Jan-28 11:33N 47°48' W 004°01'9 9.4
2015-Jan-28 10:33N 47°55' W 004°08'3 3.3
2015-Jan-28 09:33N 47°58' W 004°06'0 0.0
2015-Jan-27 20:33N 47°58' W 004°06'0 0.0
2015-Jan-27 05:33N 47°58' W 004°06'0 0.0
2015-Jan-26 14:33N 47°58' W 004°06'2 0.3
2015-Jan-26 07:33N 47°56' W 004°07'6 2.8
2015-Jan-26 05:33N 47°50' W 004°06'0 0.0
2015-Jan-25 19:33N 47°50' W 004°06'0 0.0
2015-Jan-25 16:33N 47°50' W 004°06'3 2.9
2015-Jan-25 15:33N 47°48' W 004°03'47 9.4
2015-Jan-25 10:33N 47°22' W 003°05'6 0.6
2015-Jan-25 00:34N 47°19' W 002°58'8010.0
2015-Jan-24 16:33N 47°58' W 004°41'7 6.9
2015-Jan-24 15:34N 48°04' W 004°45'10 9.8
2015-Jan-24 14:34N 48°14' W 004°45'9 8.8
2015-Jan-24 13:33N 48°23' W 004°49'1010.2
2015-Jan-24 12:33N 48°33' W 004°49'1111.4
2015-Jan-24 11:33N 48°40' W 004°36'1212.4
2015-Jan-24 10:33N 48°44' W 004°19'  
2015-Jan-21 00:33N 48°39' W 004°41'1010.2
2015-Jan-20 23:33N 48°31' W 004°50'1110.6
2015-Jan-20 22:33N 48°20' W 004°48'1010.2
2015-Jan-20 21:34N 48°10' W 004°45'9 9.2
2015-Jan-20 20:34N 48°01' W 004°45'10 9.7
2015-Jan-20 19:33N 47°54' W 004°36'9 9.4
2015-Jan-20 18:33N 47°47' W 004°26'9 8.9
2015-Jan-20 17:33N 47°45' W 004°13'14 7.2
2015-Jan-20 15:33N 47°58' W 004°06'0 0.0
2015-Jan-20 12:33N 47°58' W 004°06'  

Dump ship's entire track history